Ana Sayfa
METAR-TAF:

METAR-TAF

Havaalanları :

Kota Kinabalu Uluslararası Havalimanı

Kota Kinabalu, Malezya

Enlem: 05-56N, Boylam: 116-03E, yükseklik: 3 m

Güncel hava durumu gözlemi

Rapor saat 09:30 UTC de 40 dakika önce yapıldı.
Rüzgar kuzey/kuzeydoğudan 5 kt, batı/kuzeybatı ve doğu arasında değişken
Sıcaklık 29°C
Nem 79%
Basınç 1007 hPa
Görüş mesafesi 10 km veya daha fazla
1500 ft yükseklikte az bulutlu

METAR: WBKK 250930Z 02005KT 300V080 9999 FEW015 29/25 Q1007 NOSIG

Saat: 18:10 (10:10 UTC)

Tahmin

Rapor saat 05:00 UTC de 5 saat ve 10 dakika önce yapıldı.
Ayın 25'si saat 06 UTC'den ayın 26'si saat 06 UTC'ye kadar geçerli Tahmin
Rüzgar kuzeydan 7 kt
Görüş mesafesi 10 km veya daha fazla
1500 ft yükseklikte az bulutlu
Dönüşüyor
ayın 25'si saat 14 UTC'den ayın 25'si saat 16 UTC'ye kadar
Rüzgar doğu/güneydoğudan 5 kt

TAF: WBKK 250500Z 2506/2606 35007KT 9999 FEW015 BECMG 2514/2516 11005KT

4.000'den fazla havaalanı için hava durumu gözlemleri ve tahminleri (METAR ve TAF raporları).

Kullanılabilir istasyonlar harita üzerinde sarı ve kırmızı noktalarla gösterilir.

İstasyonun adını görmek için fareyi noktanın üzerinde gezdirin.

Sonrasında hava gözlem ve tahminlerini görmek için tıklayın.

Haritayı değiştirmek için: yaklaştırmak için siyah artı işaretli yeşil düğmeye ve uzaklaştırmak için de eksi işaretli düğmeye hızla tıklayın; bitişik haritalar için yeşil okları kullanın.


METAR-TAF: